Terminal Aerodrome Forecast
Issued by NWS Chicago, IL

Home | Current Version | Previous Version | Text Only | Print | Product List | Glossary Off
Versions: 1 2 3 4 5 6 7 8 9 10 11 12 13 14 15 16 17 18 19 20 21 22 23 24

000
FTUS43 KLOT 250538
TAFRFD
TAF
KRFD 250538Z 2506/2606 04012G21KT P6SM SCT025 BKN100
      TEMPO 2506/2508 BKN025 BKN100
     FM251300 01013KT P6SM SKC
     FM252000 02009KT P6SM SKC
     FM260300 11006KT P6SM SKC=

USA.gov is the U.S. government's official web portal to all federal, state and local government web resources and services.